Terminal Aerodrome Forecast
Issued by NWS

Home | Current Version | Previous Version | Text Only | Print | Product List | Glossary On
Versions: 1 2 3 4 5 6 7 8 9 10 11 12
000
FTUS43 KPAH 250520
TAFOWB
TAF
KOWB 250520Z 2506/2606 21009KT P6SM FEW120 BKN200
     FM251200 29009KT P6SM SCT200
     FM251600 31008G17KT P6SM SKC
     FM252300 32004KT P6SM SKC=

USA.gov is the U.S. government's official web portal to all federal, state and local government web resources and services.